Saga Pearl II — 9HA2950 — position and weather

sailwx.info

Track history (hours):
 
Tides and Currents Weather Stations Pressure Air Temp Water Temp Dewpoint Dewpoint Depression Visibility Wind Speed Wind Dir Waves Ship Positions

Saga Pearl II

Last reported at 2017-Jun-26 07:32 UTC. Time now 2017-Jun-26 10:37 UTC.
Position N 36°42' W 008°59'.

Length 165 m; draft 6.4 m.

Type: Ship. MMSI: 256878000.

Date/timePositionNaut miles runAvg speedWind from/ knotsBaromVisibWave heightAir tempDewpointWater temp
2017-Jun-26 07:32N 36°42' W 008°59'014.9
2017-Jun-26 07:30N 36°42' W 008°58'3915.5
2017-Jun-26 05:00N 36°30' W 008°12'2213.1 330 / 171012.910.8 19.615.223.2
2017-Jun-26 03:17N 36°24' W 007°45'514.7
2017-Jun-26 02:57N 36°22' W 007°40'915.0
2017-Jun-26 02:20N 36°19' W 007°29'1215.1
2017-Jun-26 01:33N 36°15' W 007°15'1322.5
2017-Jun-26 01:00N 36°12' W 007°00'4 7.9 290 / 151012.410.8 22.218.4
2017-Jun-26 00:30N 36°10' W 006°56'5215.5
2017-Jun-25 21:10N 35°59' W 005°54'415.0
2017-Jun-25 20:54N 35°58' W 005°49'913.2
2017-Jun-25 20:11N 35°58' W 005°37'211.9
2017-Jun-25 20:00N 35°58' W 005°34'611.7
2017-Jun-25 19:30N 36°00' W 005°28'611.9
2017-Jun-25 19:00N 36°02' W 005°21'13515.0
2017-Jun-25 09:59N 36°23' W 002°35'815.9
2017-Jun-25 09:30N 36°24' W 002°25'815.9
2017-Jun-25 09:00N 36°25' W 002°15'2214.2
2017-Jun-25 07:27N 36°38' W 001°53'4317.5
2017-Jun-25 05:00N 37°06' W 001°12'4 6.4 020 / 161013.710.8 25.520.5
2017-Jun-25 04:18N 37°10' W 001°09'815.8
2017-Jun-25 03:48N 37°15' W 001°02'2915.4
2017-Jun-25 01:56N 37°34' W 000°34'615.1
2017-Jun-25 01:30N 37°40' W 000°30'611.0
2017-Jun-25 01:00N 37°42' W 000°24'556.6 090 / 61013.810.8 25.222.9
2017-Jun-25 00:54N 37°47' W 000°24'815.3
2017-Jun-25 00:23N 37°53' W 000°17'3917.5
2017-Jun-24 22:10N 38°25' E 000°10'517.3
2017-Jun-24 21:51N 38°30' E 000°14'93 5.2
2017-Jun-24 03:48N 40°03' E 000°20'4415.8
2017-Jun-24 01:00N 40°30' E 001°06'16239.6 180 / 81017.910.8 25.222.7
2017-Jun-24 00:56N 40°23' E 000°47'810.0
2017-Jun-24 00:10N 40°28' E 000°55'4 9.8
2017-Jun-23 23:42N 40°31' E 001°00'3 9.9
2017-Jun-23 23:27N 40°32' E 001°03'510.1
2017-Jun-23 22:56N 40°35' E 001°08'1913.9
2017-Jun-23 21:35N 40°49' E 001°25'215.3
2017-Jun-23 21:27N 40°50' E 001°28'815.3
2017-Jun-23 20:55N 40°55' E 001°36'915.6
2017-Jun-23 20:19N 41°00' E 001°46'1415.3
2017-Jun-23 19:26N 41°09' E 001°60'1414.6
2017-Jun-23 18:30N 41°18' E 002°14'5 0.4
2017-Jun-23 05:27N 41°22' E 002°11'3 5.1
2017-Jun-23 04:51N 41°20' E 002°14'1915.6
2017-Jun-23 03:39N 41°25' E 002°38'316.3
2017-Jun-23 03:28N 41°27' E 002°42'911.9
2017-Jun-23 02:44N 41°30' E 002°52'2 9.2
2017-Jun-23 02:30N 41°31' E 002°55'12 9.4
2017-Jun-23 01:11N 41°35' E 003°11'2 9.9
2017-Jun-23 00:58N 41°36' E 003°13'810.0
2017-Jun-23 00:12N 41°39' E 003°23'1310.4
2017-Jun-22 22:57N 41°43' E 003°39'510.2
2017-Jun-22 22:30N 41°45' E 003°45'510.2
2017-Jun-22 22:00N 41°47' E 003°51'510.3
2017-Jun-22 21:30N 41°49' E 003°58'510.0
2017-Jun-22 21:00N 41°51' E 004°04'5 9.8
2017-Jun-22 20:28N 41°53' E 004°10'12 9.9
2017-Jun-22 19:17N 41°57' E 004°25'3 9.9
2017-Jun-22 18:58N 41°58' E 004°29'9 9.9
2017-Jun-22 18:02N 42°01' E 004°41'010.0
2017-Jun-22 18:00N 42°01' E 004°41'4810.2
2017-Jun-22 13:15N 42°19' E 005°42'310.1
2017-Jun-22 13:00N 42°20' E 005°45'510.1
2017-Jun-22 12:30N 42°22' E 005°51'510.3
2017-Jun-22 12:00N 42°24' E 005°57'38 9.9
2017-Jun-22 08:10N 42°37' E 006°46'210.2
2017-Jun-22 07:58N 42°38' E 006°48'510.2
2017-Jun-22 07:30N 42°40' E 006°54'510.3
2017-Jun-22 07:00N 42°42' E 007°01'181938.7
2017-Jun-22 07:00N 42°48' E 007°24'1219.5 270 / 61007.810.8 23.920.725.8
2017-Jun-22 06:23N 42°44' E 007°09'410.3
2017-Jun-22 06:00N 42°45' E 007°14'810.1
2017-Jun-22 05:10N 42°48' E 007°24'5 9.9
2017-Jun-22 04:42N 42°50' E 007°30'2 9.9
2017-Jun-22 04:30N 42°51' E 007°33'510.0
2017-Jun-22 04:00N 42°53' E 007°39'510.2
2017-Jun-22 03:30N 42°55' E 007°46'510.7
2017-Jun-22 03:00N 42°56' E 007°52'1610.7
2017-Jun-22 01:32N 43°02' E 008°12'010.6
2017-Jun-22 01:30N 43°02' E 008°13'4 8.6
2017-Jun-22 01:00N 43°00' E 008°18'5122.8 280 / 51017.310.8 23.520.9
2017-Jun-22 00:57N 43°04' E 008°20'810.3
2017-Jun-22 00:12N 43°07' E 008°30'210.3
2017-Jun-22 00:00N 43°08' E 008°33'510.3
2017-Jun-21 23:30N 43°10' E 008°40'610.2
2017-Jun-21 22:57N 43°11' E 008°47'510.4
2017-Jun-21 22:29N 43°13' E 008°53'510.4
2017-Jun-21 22:00N 43°15' E 008°59'612.5
2017-Jun-21 21:30N 43°18' E 009°07'815.4
2017-Jun-21 21:01N 43°20' E 009°17'815.6
2017-Jun-21 20:30N 43°23' E 009°27'815.7
2017-Jun-21 20:00N 43°26' E 009°37'815.7
2017-Jun-21 19:30N 43°30' E 009°47'815.6
2017-Jun-21 19:00N 43°31' E 009°57'815.6
2017-Jun-21 18:30N 43°31' E 010°08'612.3
2017-Jun-21 18:00N 43°32' E 010°16'1 2.9
2017-Jun-21 17:31N 43°33' E 010°18'0 0.0
2017-Jun-21 16:58N 43°33' E 010°18'0 0.0
2017-Jun-21 16:28N 43°33' E 010°18'0 0.0
2017-Jun-21 16:00N 43°33' E 010°18'0 0.0
2017-Jun-21 15:30N 43°33' E 010°18'0 0.0
2017-Jun-21 15:00N 43°33' E 010°18'0 0.0
2017-Jun-21 14:00N 43°33' E 010°18'0 0.0
2017-Jun-21 13:29N 43°33' E 010°18'0 0.0
2017-Jun-21 12:59N 43°33' E 010°18'0 0.0
2017-Jun-21 12:29N 43°33' E 010°18'0 0.0
2017-Jun-21 11:56N 43°33' E 010°18'0 0.0
2017-Jun-21 11:29N 43°33' E 010°18'0 0.0
2017-Jun-21 10:58N 43°33' E 010°18'0 0.0
2017-Jun-21 10:28N 43°33' E 010°18'0 0.0
2017-Jun-21 09:55N 43°33' E 010°18'0 0.0
2017-Jun-21 09:28N 43°33' E 010°18'0 0.0
2017-Jun-21 09:00N 43°33' E 010°18'0 0.0
2017-Jun-21 08:24N 43°33' E 010°18'0 0.0
2017-Jun-21 07:58N 43°33' E 010°18'0 0.0
2017-Jun-21 07:28N 43°33' E 010°18'0 0.0
2017-Jun-21 06:58N 43°33' E 010°18'0 0.0
2017-Jun-21 06:27N 43°33' E 010°18'0 0.0
2017-Jun-21 06:00N 43°33' E 010°18'0 0.0
2017-Jun-21 05:30N 43°33' E 010°18'3 6.0
2017-Jun-21 05:00N 43°31' E 010°16'4 7.6
2017-Jun-21 04:30N 43°27' E 010°14'510.9
2017-Jun-21 04:00N 43°22' E 010°13'713.8
2017-Jun-21 03:30N 43°15' E 010°10'713.6
2017-Jun-21 03:00N 43°08' E 010°08'713.4
2017-Jun-21 02:30N 43°02' E 010°06'713.7
2017-Jun-21 02:00N 42°55' E 010°04'13897.4
2017-Jun-21 02:00N 42°42' E 010°00'613.2 100 / 51017.410.8 23.120.2
2017-Jun-21 01:30N 42°48' E 010°02'2313.0
2017-Jun-20 23:45N 42°31' E 010°21'4215.2
2017-Jun-20 21:00N 42°08' E 011°08'14 0.8
2017-Jun-20 03:42N 41°58' E 011°22'315.7
2017-Jun-20 03:30N 41°57' E 011°18'5622.3
2017-Jun-20 01:00N 41°30' E 010°12'8 9.8 180 / 61021.110.8 23.015.0
2017-Jun-20 00:10N 41°37' E 010°16'414.8
2017-Jun-19 23:56N 41°36' E 010°11'614.6
2017-Jun-19 23:30N 41°34' E 010°04'4314.7
2017-Jun-19 20:36N 41°17' E 009°11'2915.0
2017-Jun-19 18:38N 41°14' E 008°32'2914.7
2017-Jun-19 16:39N 41°04' E 007°56'2210.9
2017-Jun-19 14:39N 40°53' E 007°30'16713.3
2017-Jun-19 02:04N 39°34' E 004°18'2215.0
2017-Jun-19 00:37N 39°22' E 003°55'615.0
2017-Jun-19 00:13N 39°20' E 003°47'515.0
2017-Jun-18 23:52N 39°18' E 003°41'615.1
2017-Jun-18 23:29N 39°15' E 003°35'815.4
2017-Jun-18 23:00N 39°12' E 003°26'815.5
2017-Jun-18 22:30N 39°09' E 003°17'815.6
2017-Jun-18 22:00N 39°05' E 003°08'815.2
2017-Jun-18 21:30N 39°02' E 002°59'815.3
2017-Jun-18 21:00N 39°01' E 002°50'815.3
2017-Jun-18 20:29N 39°00' E 002°39'715.1
2017-Jun-18 20:00N 38°59' E 002°30'815.2
2017-Jun-18 19:30N 38°58' E 002°20'715.3
2017-Jun-18 19:00N 38°57' E 002°11'815.4
2017-Jun-18 18:30N 38°57' E 002°01'815.3
2017-Jun-18 17:59N 38°56' E 001°51'715.3
2017-Jun-18 17:30N 38°55' E 001°41'815.0
2017-Jun-18 17:00N 38°54' E 001°32'4 0.3
2017-Jun-18 05:13N 38°54' E 001°27'1 6.8
2017-Jun-18 05:00N 38°53' E 001°29'1512.9
2017-Jun-18 03:52N 38°41' E 001°39'513.3
2017-Jun-18 03:30N 38°37' E 001°36'714.3
2017-Jun-18 03:00N 38°33' E 001°28'814.4
2017-Jun-18 02:27N 38°28' E 001°20'714.2
2017-Jun-18 01:59N 38°24' E 001°13'714.3
2017-Jun-18 01:30N 38°20' E 001°06'6514.7
2017-Jun-17 21:06N 37°41' E 000°00'214.9
2017-Jun-17 20:59N 37°40' W 000°01'814.7
2017-Jun-17 20:27N 37°35' W 000°09'715.4
2017-Jun-17 19:58N 37°31' W 000°17'2715.8
2017-Jun-17 18:15N 37°15' W 000°45'415.7
2017-Jun-17 17:59N 37°12' W 000°49'1515.4
2017-Jun-17 17:02N 37°03' W 001°03'115.4
2017-Jun-17 16:59N 37°02' W 001°04'914.8
2017-Jun-17 16:22N 36°57' W 001°13'614.6
2017-Jun-17 15:55N 36°53' W 001°19'614.6
2017-Jun-17 15:30N 36°49' W 001°25'18013.3
2017-Jun-17 02:00N 36°00' W 005°00'1 6.1 090 / 151018.710.8 22.118.0
2017-Jun-17 01:48N 36°01' W 004°59'515.0
2017-Jun-17 01:27N 36°00' W 005°06'715.8
2017-Jun-17 01:00N 35°59' W 005°14'817.0
2017-Jun-17 00:30N 35°58' W 005°25'2116.4
2017-Jun-16 23:12N 35°53' W 005°50'515.6
2017-Jun-16 22:53N 35°53' W 005°56'2913.1
2017-Jun-16 20:42N 36°09' W 006°25'415.1
2017-Jun-16 20:28N 36°13' W 006°28'  
Track history (hours):
 
Tides and Currents Weather Stations Pressure Air Temp Water Temp Dewpoint Dewpoint Depression Visibility Wind Speed Wind Dir Waves Ship Positions

Saga Pearl II

Last reported at 2017-Jun-26 07:32 UTC. Time now 2017-Jun-26 10:37 UTC.
Position N 36°42' W 008°59'.

Length 165 m; draft 6.4 m.

Type: Ship. MMSI: 256878000.

Date/timePositionNaut miles runAvg speedWind from/ knotsBaromVisibWave heightAir tempDewpointWater temp
2017-Jun-26 07:32N 36°42' W 008°59'014.9
2017-Jun-26 07:30N 36°42' W 008°58'3915.5
2017-Jun-26 05:00N 36°30' W 008°12'2213.1 330 / 171012.910.8 19.615.223.2
2017-Jun-26 03:17N 36°24' W 007°45'514.7
2017-Jun-26 02:57N 36°22' W 007°40'915.0
2017-Jun-26 02:20N 36°19' W 007°29'1215.1
2017-Jun-26 01:33N 36°15' W 007°15'1322.5
2017-Jun-26 01:00N 36°12' W 007°00'4 7.9 290 / 151012.410.8 22.218.4
2017-Jun-26 00:30N 36°10' W 006°56'5215.5
2017-Jun-25 21:10N 35°59' W 005°54'415.0
2017-Jun-25 20:54N 35°58' W 005°49'913.2
2017-Jun-25 20:11N 35°58' W 005°37'211.9
2017-Jun-25 20:00N 35°58' W 005°34'611.7
2017-Jun-25 19:30N 36°00' W 005°28'611.9
2017-Jun-25 19:00N 36°02' W 005°21'13515.0
2017-Jun-25 09:59N 36°23' W 002°35'815.9
2017-Jun-25 09:30N 36°24' W 002°25'815.9
2017-Jun-25 09:00N 36°25' W 002°15'2214.2
2017-Jun-25 07:27N 36°38' W 001°53'4317.5
2017-Jun-25 05:00N 37°06' W 001°12'4 6.4 020 / 161013.710.8 25.520.5
2017-Jun-25 04:18N 37°10' W 001°09'815.8
2017-Jun-25 03:48N 37°15' W 001°02'2915.4
2017-Jun-25 01:56N 37°34' W 000°34'615.1
2017-Jun-25 01:30N 37°40' W 000°30'611.0
2017-Jun-25 01:00N 37°42' W 000°24'556.6 090 / 61013.810.8 25.222.9
2017-Jun-25 00:54N 37°47' W 000°24'815.3
2017-Jun-25 00:23N 37°53' W 000°17'3917.5
2017-Jun-24 22:10N 38°25' E 000°10'517.3
2017-Jun-24 21:51N 38°30' E 000°14'93 5.2
2017-Jun-24 03:48N 40°03' E 000°20'4415.8
2017-Jun-24 01:00N 40°30' E 001°06'16239.6 180 / 81017.910.8 25.222.7
2017-Jun-24 00:56N 40°23' E 000°47'810.0
2017-Jun-24 00:10N 40°28' E 000°55'4 9.8
2017-Jun-23 23:42N 40°31' E 001°00'3 9.9
2017-Jun-23 23:27N 40°32' E 001°03'510.1
2017-Jun-23 22:56N 40°35' E 001°08'1913.9
2017-Jun-23 21:35N 40°49' E 001°25'215.3
2017-Jun-23 21:27N 40°50' E 001°28'815.3
2017-Jun-23 20:55N 40°55' E 001°36'915.6
2017-Jun-23 20:19N 41°00' E 001°46'1415.3
2017-Jun-23 19:26N 41°09' E 001°60'1414.6
2017-Jun-23 18:30N 41°18' E 002°14'5 0.4
2017-Jun-23 05:27N 41°22' E 002°11'3 5.1
2017-Jun-23 04:51N 41°20' E 002°14'1915.6
2017-Jun-23 03:39N 41°25' E 002°38'316.3
2017-Jun-23 03:28N 41°27' E 002°42'911.9
2017-Jun-23 02:44N 41°30' E 002°52'2 9.2
2017-Jun-23 02:30N 41°31' E 002°55'12 9.4
2017-Jun-23 01:11N 41°35' E 003°11'2 9.9
2017-Jun-23 00:58N 41°36' E 003°13'810.0
2017-Jun-23 00:12N 41°39' E 003°23'1310.4
2017-Jun-22 22:57N 41°43' E 003°39'510.2
2017-Jun-22 22:30N 41°45' E 003°45'510.2
2017-Jun-22 22:00N 41°47' E 003°51'510.3
2017-Jun-22 21:30N 41°49' E 003°58'510.0
2017-Jun-22 21:00N 41°51' E 004°04'5 9.8
2017-Jun-22 20:28N 41°53' E 004°10'12 9.9
2017-Jun-22 19:17N 41°57' E 004°25'3 9.9
2017-Jun-22 18:58N 41°58' E 004°29'9 9.9
2017-Jun-22 18:02N 42°01' E 004°41'010.0
2017-Jun-22 18:00N 42°01' E 004°41'4810.2
2017-Jun-22 13:15N 42°19' E 005°42'310.1
2017-Jun-22 13:00N 42°20' E 005°45'510.1
2017-Jun-22 12:30N 42°22' E 005°51'510.3
2017-Jun-22 12:00N 42°24' E 005°57'38 9.9
2017-Jun-22 08:10N 42°37' E 006°46'210.2
2017-Jun-22 07:58N 42°38' E 006°48'510.2
2017-Jun-22 07:30N 42°40' E 006°54'510.3
2017-Jun-22 07:00N 42°42' E 007°01'181938.7
2017-Jun-22 07:00N 42°48' E 007°24'1219.5 270 / 61007.810.8 23.920.725.8
2017-Jun-22 06:23N 42°44' E 007°09'410.3
2017-Jun-22 06:00N 42°45' E 007°14'810.1
2017-Jun-22 05:10N 42°48' E 007°24'5 9.9
2017-Jun-22 04:42N 42°50' E 007°30'2 9.9
2017-Jun-22 04:30N 42°51' E 007°33'510.0
2017-Jun-22 04:00N 42°53' E 007°39'510.2
2017-Jun-22 03:30N 42°55' E 007°46'510.7
2017-Jun-22 03:00N 42°56' E 007°52'1610.7
2017-Jun-22 01:32N 43°02' E 008°12'010.6
2017-Jun-22 01:30N 43°02' E 008°13'4 8.6
2017-Jun-22 01:00N 43°00' E 008°18'5122.8 280 / 51017.310.8 23.520.9
2017-Jun-22 00:57N 43°04' E 008°20'810.3
2017-Jun-22 00:12N 43°07' E 008°30'210.3
2017-Jun-22 00:00N 43°08' E 008°33'510.3
2017-Jun-21 23:30N 43°10' E 008°40'610.2
2017-Jun-21 22:57N 43°11' E 008°47'510.4
2017-Jun-21 22:29N 43°13' E 008°53'510.4
2017-Jun-21 22:00N 43°15' E 008°59'612.5
2017-Jun-21 21:30N 43°18' E 009°07'815.4
2017-Jun-21 21:01N 43°20' E 009°17'815.6
2017-Jun-21 20:30N 43°23' E 009°27'815.7
2017-Jun-21 20:00N 43°26' E 009°37'815.7
2017-Jun-21 19:30N 43°30' E 009°47'815.6
2017-Jun-21 19:00N 43°31' E 009°57'815.6
2017-Jun-21 18:30N 43°31' E 010°08'612.3
2017-Jun-21 18:00N 43°32' E 010°16'1 2.9
2017-Jun-21 17:31N 43°33' E 010°18'0 0.0
2017-Jun-21 16:58N 43°33' E 010°18'0 0.0
2017-Jun-21 16:28N 43°33' E 010°18'0 0.0
2017-Jun-21 16:00N 43°33' E 010°18'0 0.0
2017-Jun-21 15:30N 43°33' E 010°18'0 0.0
2017-Jun-21 15:00N 43°33' E 010°18'0 0.0
2017-Jun-21 14:00N 43°33' E 010°18'0 0.0
2017-Jun-21 13:29N 43°33' E 010°18'0 0.0
2017-Jun-21 12:59N 43°33' E 010°18'0 0.0
2017-Jun-21 12:29N 43°33' E 010°18'0 0.0
2017-Jun-21 11:56N 43°33' E 010°18'0 0.0
2017-Jun-21 11:29N 43°33' E 010°18'0 0.0
2017-Jun-21 10:58N 43°33' E 010°18'0 0.0
2017-Jun-21 10:28N 43°33' E 010°18'0 0.0
2017-Jun-21 09:55N 43°33' E 010°18'0 0.0
2017-Jun-21 09:28N 43°33' E 010°18'0 0.0
2017-Jun-21 09:00N 43°33' E 010°18'0 0.0
2017-Jun-21 08:24N 43°33' E 010°18'0 0.0
2017-Jun-21 07:58N 43°33' E 010°18'0 0.0
2017-Jun-21 07:28N 43°33' E 010°18'0 0.0
2017-Jun-21 06:58N 43°33' E 010°18'0 0.0
2017-Jun-21 06:27N 43°33' E 010°18'0 0.0
2017-Jun-21 06:00N 43°33' E 010°18'0 0.0
2017-Jun-21 05:30N 43°33' E 010°18'3 6.0
2017-Jun-21 05:00N 43°31' E 010°16'4 7.6
2017-Jun-21 04:30N 43°27' E 010°14'510.9
2017-Jun-21 04:00N 43°22' E 010°13'713.8
2017-Jun-21 03:30N 43°15' E 010°10'713.6
2017-Jun-21 03:00N 43°08' E 010°08'713.4
2017-Jun-21 02:30N 43°02' E 010°06'713.7
2017-Jun-21 02:00N 42°55' E 010°04'13897.4
2017-Jun-21 02:00N 42°42' E 010°00'613.2 100 / 51017.410.8 23.120.2
2017-Jun-21 01:30N 42°48' E 010°02'2313.0
2017-Jun-20 23:45N 42°31' E 010°21'4215.2
2017-Jun-20 21:00N 42°08' E 011°08'14 0.8
2017-Jun-20 03:42N 41°58' E 011°22'315.7
2017-Jun-20 03:30N 41°57' E 011°18'5622.3
2017-Jun-20 01:00N 41°30' E 010°12'8 9.8 180 / 61021.110.8 23.015.0
2017-Jun-20 00:10N 41°37' E 010°16'414.8
2017-Jun-19 23:56N 41°36' E 010°11'614.6
2017-Jun-19 23:30N 41°34' E 010°04'4314.7
2017-Jun-19 20:36N 41°17' E 009°11'2915.0
2017-Jun-19 18:38N 41°14' E 008°32'2914.7
2017-Jun-19 16:39N 41°04' E 007°56'2210.9
2017-Jun-19 14:39N 40°53' E 007°30'16713.3
2017-Jun-19 02:04N 39°34' E 004°18'2215.0
2017-Jun-19 00:37N 39°22' E 003°55'615.0
2017-Jun-19 00:13N 39°20' E 003°47'515.0
2017-Jun-18 23:52N 39°18' E 003°41'615.1
2017-Jun-18 23:29N 39°15' E 003°35'815.4
2017-Jun-18 23:00N 39°12' E 003°26'815.5
2017-Jun-18 22:30N 39°09' E 003°17'815.6
2017-Jun-18 22:00N 39°05' E 003°08'815.2
2017-Jun-18 21:30N 39°02' E 002°59'815.3
2017-Jun-18 21:00N 39°01' E 002°50'815.3
2017-Jun-18 20:29N 39°00' E 002°39'715.1
2017-Jun-18 20:00N 38°59' E 002°30'815.2
2017-Jun-18 19:30N 38°58' E 002°20'715.3
2017-Jun-18 19:00N 38°57' E 002°11'815.4
2017-Jun-18 18:30N 38°57' E 002°01'815.3
2017-Jun-18 17:59N 38°56' E 001°51'715.3
2017-Jun-18 17:30N 38°55' E 001°41'815.0
2017-Jun-18 17:00N 38°54' E 001°32'4 0.3
2017-Jun-18 05:13N 38°54' E 001°27'1 6.8
2017-Jun-18 05:00N 38°53' E 001°29'1512.9
2017-Jun-18 03:52N 38°41' E 001°39'513.3
2017-Jun-18 03:30N 38°37' E 001°36'714.3
2017-Jun-18 03:00N 38°33' E 001°28'814.4
2017-Jun-18 02:27N 38°28' E 001°20'714.2
2017-Jun-18 01:59N 38°24' E 001°13'714.3
2017-Jun-18 01:30N 38°20' E 001°06'6514.7
2017-Jun-17 21:06N 37°41' E 000°00'214.9
2017-Jun-17 20:59N 37°40' W 000°01'814.7
2017-Jun-17 20:27N 37°35' W 000°09'715.4
2017-Jun-17 19:58N 37°31' W 000°17'2715.8
2017-Jun-17 18:15N 37°15' W 000°45'415.7
2017-Jun-17 17:59N 37°12' W 000°49'1515.4
2017-Jun-17 17:02N 37°03' W 001°03'115.4
2017-Jun-17 16:59N 37°02' W 001°04'914.8
2017-Jun-17 16:22N 36°57' W 001°13'614.6
2017-Jun-17 15:55N 36°53' W 001°19'614.6
2017-Jun-17 15:30N 36°49' W 001°25'18013.3
2017-Jun-17 02:00N 36°00' W 005°00'1 6.1 090 / 151018.710.8 22.118.0
2017-Jun-17 01:48N 36°01' W 004°59'515.0
2017-Jun-17 01:27N 36°00' W 005°06'715.8
2017-Jun-17 01:00N 35°59' W 005°14'817.0
2017-Jun-17 00:30N 35°58' W 005°25'2116.4
2017-Jun-16 23:12N 35°53' W 005°50'515.6
2017-Jun-16 22:53N 35°53' W 005°56'2913.1
2017-Jun-16 20:42N 36°09' W 006°25'415.1
2017-Jun-16 20:28N 36°13' W 006°28'  

Dump ship's entire track history